createdAt,value
2018-01-14T00:00:26.359Z,6.05
2018-01-14T00:02:57.839Z,6.05
2018-01-14T00:05:26.189Z,5.90
2018-01-14T00:07:58.272Z,5.90
2018-01-14T00:10:26.614Z,5.87
2018-01-14T00:12:57.534Z,5.95
2018-01-14T00:15:25.829Z,5.93
2018-01-14T00:18:00.988Z,5.98
2018-01-14T00:20:29.270Z,5.96
2018-01-14T00:22:57.636Z,5.81
2018-01-14T00:25:25.964Z,5.74
2018-01-14T00:27:57.556Z,5.71
2018-01-14T00:30:25.864Z,5.76
2018-01-14T00:32:57.688Z,5.84
2018-01-14T00:35:26.154Z,5.89
2018-01-14T00:37:57.431Z,5.77
2018-01-14T00:40:26.044Z,5.80
2018-01-14T00:42:58.188Z,5.84
2018-01-14T00:45:27.234Z,5.90
2018-01-14T00:47:59.397Z,5.77
2018-01-14T00:50:27.688Z,5.74
2018-01-14T00:52:59.142Z,5.81
2018-01-14T00:55:27.425Z,5.86
2018-01-14T00:57:58.295Z,5.85
2018-01-14T01:00:26.583Z,5.85
2018-01-14T01:02:58.883Z,5.73
2018-01-14T01:05:27.169Z,5.79
2018-01-14T01:07:58.444Z,5.78
2018-01-14T01:10:26.736Z,5.68
2018-01-14T01:12:59.553Z,5.49
2018-01-14T01:15:27.859Z,5.77
2018-01-14T01:17:59.168Z,5.74
2018-01-14T01:20:27.533Z,5.79
2018-01-14T01:22:57.429Z,5.91
2018-01-14T01:25:25.730Z,5.78
2018-01-14T01:27:57.152Z,5.67
2018-01-14T01:30:25.863Z,5.60
2018-01-14T01:33:01.030Z,5.61
2018-01-14T01:35:29.348Z,5.60
2018-01-14T01:37:57.636Z,5.65
2018-01-14T01:40:25.968Z,5.67
2018-01-14T01:42:57.507Z,5.63
2018-01-14T01:45:25.796Z,5.65
2018-01-14T01:48:00.972Z,5.60
2018-01-14T01:50:29.266Z,5.54
2018-01-14T01:52:57.608Z,5.55
2018-01-14T01:55:25.889Z,5.57
2018-01-14T01:58:02.118Z,5.50
2018-01-14T02:00:30.420Z,5.43
2018-01-14T02:02:58.745Z,5.41
2018-01-14T02:05:27.021Z,5.54
2018-01-14T02:07:57.933Z,5.56
2018-01-14T02:10:26.225Z,5.57
2018-01-14T02:12:57.751Z,5.55
2018-01-14T02:15:26.041Z,5.50
2018-01-14T02:17:58.072Z,5.54
2018-01-14T02:20:26.357Z,5.48
2018-01-14T02:22:58.452Z,5.45
2018-01-14T02:25:26.735Z,5.46
2018-01-14T02:27:58.867Z,5.48
2018-01-14T02:30:27.294Z,5.39
2018-01-14T02:32:58.963Z,5.51
2018-01-14T02:35:27.335Z,5.51
2018-01-14T02:37:59.720Z,5.44
2018-01-14T02:40:28.027Z,5.39
2018-01-14T02:42:58.696Z,5.45
2018-01-14T02:45:27.004Z,5.26
2018-01-14T02:47:58.757Z,5.31
2018-01-14T02:50:27.068Z,5.35
2018-01-14T02:52:59.109Z,5.36
2018-01-14T02:55:27.414Z,5.29
2018-01-14T02:57:57.921Z,5.43
2018-01-14T03:00:26.213Z,5.49
2018-01-14T03:02:57.752Z,5.25
2018-01-14T03:05:26.045Z,5.34
2018-01-14T03:07:57.911Z,5.29
2018-01-14T03:10:26.543Z,5.31
2018-01-14T03:12:57.677Z,5.34
2018-01-14T03:15:26.315Z,5.26
2018-01-14T03:17:57.435Z,5.35
2018-01-14T03:20:25.737Z,5.10
2018-01-14T03:22:57.827Z,5.25
2018-01-14T03:25:26.200Z,5.10
2018-01-14T03:27:58.235Z,5.23
2018-01-14T03:30:27.741Z,5.08
2018-01-14T03:32:59.374Z,5.14
2018-01-14T03:35:27.843Z,5.14
2018-01-14T03:37:58.309Z,5.10
2018-01-14T03:40:27.459Z,5.06
2018-01-14T03:42:59.384Z,5.15
2018-01-14T03:45:27.851Z,5.06
2018-01-14T03:47:59.086Z,5.07
2018-01-14T03:50:27.389Z,5.10
2018-01-14T03:52:57.519Z,5.00
2018-01-14T03:55:25.812Z,5.07
2018-01-14T03:57:57.496Z,5.04
2018-01-14T04:00:25.823Z,5.05
2018-01-14T04:02:57.563Z,5.05
2018-01-14T04:05:25.883Z,5.07
2018-01-14T04:07:57.341Z,5.09
2018-01-14T04:10:25.633Z,5.10
2018-01-14T04:12:57.234Z,4.95
2018-01-14T04:15:25.543Z,5.00
2018-01-14T04:18:00.542Z,5.03
2018-01-14T04:20:28.853Z,4.99
2018-01-14T04:22:58.366Z,4.94
2018-01-14T04:25:26.680Z,4.95
2018-01-14T04:27:58.397Z,4.91
2018-01-14T04:30:26.719Z,4.90
2018-01-14T04:32:59.620Z,4.99
2018-01-14T04:35:27.930Z,4.88
2018-01-14T04:37:57.864Z,4.76
2018-01-14T04:40:27.173Z,4.84
2018-01-14T04:42:59.306Z,4.83
2018-01-14T04:45:27.637Z,4.82
2018-01-14T04:47:59.924Z,4.67
2018-01-14T04:50:28.462Z,4.66
2018-01-14T04:52:58.574Z,4.71
2018-01-14T04:55:26.996Z,4.77
2018-01-14T04:57:58.795Z,4.70
2018-01-14T05:00:27.949Z,4.68
2018-01-14T05:02:59.172Z,4.78
2018-01-14T05:05:27.492Z,4.71
2018-01-14T05:07:57.844Z,4.80
2018-01-14T05:10:26.141Z,4.82
2018-01-14T05:13:01.304Z,4.79
2018-01-14T05:15:29.580Z,4.78
2018-01-14T05:17:57.882Z,4.74
2018-01-14T05:20:26.182Z,4.78
2018-01-14T05:23:01.102Z,4.85
2018-01-14T05:25:29.380Z,4.77
2018-01-14T05:27:58.036Z,4.70
2018-01-14T05:30:26.386Z,4.57
2018-01-14T05:32:58.769Z,4.73
2018-01-14T05:35:27.062Z,4.68
2018-01-14T05:37:59.243Z,4.70
2018-01-14T05:40:27.539Z,4.62
2018-01-14T05:42:59.259Z,4.74
2018-01-14T05:45:27.544Z,4.66
2018-01-14T05:47:59.444Z,4.65
2018-01-14T05:50:27.755Z,4.65
2018-01-14T05:52:59.744Z,4.58
2018-01-14T05:55:28.184Z,4.58
2018-01-14T05:57:58.273Z,4.55
2018-01-14T06:00:26.570Z,4.49
2018-01-14T06:03:00.524Z,4.53
2018-01-14T06:05:29.546Z,4.54
2018-01-14T06:07:57.839Z,4.50
2018-01-14T06:10:26.160Z,4.45
2018-01-14T06:13:01.204Z,4.48
2018-01-14T06:15:29.528Z,4.49
2018-01-14T06:17:58.142Z,4.49
2018-01-14T06:20:26.800Z,4.30
2018-01-14T06:22:58.611Z,4.43
2018-01-14T06:25:27.108Z,4.41
2018-01-14T06:27:59.227Z,4.32
2018-01-14T06:30:27.505Z,4.24
2018-01-14T06:32:59.542Z,4.14
2018-01-14T06:35:27.856Z,4.20
2018-01-14T06:37:59.507Z,4.13
2018-01-14T06:40:27.843Z,4.10
2018-01-14T06:42:57.563Z,3.90
2018-01-14T06:45:25.872Z,4.02
2018-01-14T06:47:57.627Z,4.00
2018-01-14T06:50:26.210Z,3.97
2018-01-14T06:52:58.127Z,4.02
2018-01-14T06:55:26.442Z,3.88
2018-01-14T06:57:56.701Z,3.86
2018-01-14T07:00:25.269Z,3.84
2018-01-14T07:02:56.579Z,3.82
2018-01-14T07:05:24.872Z,3.75
2018-01-14T07:07:58.223Z,3.69
2018-01-14T07:10:26.504Z,3.55
2018-01-14T07:12:58.508Z,3.64
2018-01-14T07:15:26.788Z,3.75
2018-01-14T07:17:56.719Z,3.75
2018-01-14T07:20:25.824Z,3.70
2018-01-14T07:22:57.717Z,3.68
2018-01-14T07:25:26.320Z,3.68
2018-01-14T07:27:58.067Z,3.64
2018-01-14T07:30:26.780Z,3.73
2018-01-14T07:32:57.636Z,3.58
2018-01-14T07:35:26.996Z,3.63
2018-01-14T07:37:57.144Z,3.65
2018-01-14T07:40:25.528Z,3.69
2018-01-14T07:42:56.751Z,3.69
2018-01-14T07:45:25.066Z,3.66
2018-01-14T07:47:58.005Z,3.72
2018-01-14T07:50:26.301Z,3.63
2018-01-14T07:52:58.125Z,3.52
2018-01-14T07:55:26.416Z,3.63
2018-01-14T07:57:57.849Z,3.65
2018-01-14T08:00:26.156Z,3.62
2018-01-14T08:02:57.473Z,3.78
2018-01-14T08:05:25.809Z,3.73
2018-01-14T08:07:56.774Z,3.64
2018-01-14T08:10:25.066Z,3.45
2018-01-14T08:12:56.510Z,3.56
2018-01-14T08:15:25.303Z,3.71
2018-01-14T08:17:56.668Z,3.84
2018-01-14T08:20:25.024Z,3.92
2018-01-14T08:23:00.816Z,3.78
2018-01-14T08:25:29.133Z,3.89
2018-01-14T08:27:57.426Z,4.01
2018-01-14T08:30:25.728Z,3.78
2018-01-14T08:32:56.925Z,3.99
2018-01-14T08:35:25.307Z,3.98
2018-01-14T08:37:56.553Z,3.97
2018-01-14T08:40:24.957Z,4.27
2018-01-14T08:42:56.788Z,4.22
2018-01-14T08:45:25.249Z,4.51
2018-01-14T08:47:56.854Z,4.18
2018-01-14T08:50:25.164Z,4.29
2018-01-14T08:52:59.107Z,4.52
2018-01-14T08:55:27.544Z,4.54
2018-01-14T08:57:57.067Z,4.64
2018-01-14T09:00:25.365Z,4.94
2018-01-14T09:02:57.532Z,4.72
2018-01-14T09:05:25.838Z,5.49
2018-01-14T09:07:57.577Z,6.30
2018-01-14T09:10:25.848Z,6.68
2018-01-14T09:12:56.602Z,6.99
2018-01-14T09:15:24.884Z,6.50
2018-01-14T09:17:56.640Z,6.16
2018-01-14T09:20:24.917Z,5.11
2018-01-14T09:22:59.823Z,4.82
2018-01-14T09:25:28.112Z,5.05
2018-01-14T09:27:56.956Z,5.19
2018-01-14T09:30:36.793Z,5.00
2018-01-14T09:33:05.135Z,5.06
2018-01-14T09:35:33.456Z,5.07
2018-01-14T09:38:01.728Z,4.94
2018-01-14T09:40:30.059Z,4.85
2018-01-14T09:42:58.345Z,4.89
2018-01-14T09:45:26.653Z,5.09
2018-01-14T09:47:56.729Z,5.10
2018-01-14T09:50:25.032Z,5.00
2018-01-14T09:53:00.171Z,4.99
2018-01-14T09:55:28.463Z,5.15
2018-01-14T09:57:56.764Z,5.12
2018-01-14T10:00:25.345Z,5.38
2018-01-14T10:02:57.370Z,5.87
2018-01-14T10:05:25.690Z,5.23
2018-01-14T10:07:56.861Z,5.31
2018-01-14T10:10:25.174Z,5.57
2018-01-14T10:12:59.123Z,5.46
2018-01-14T10:15:27.952Z,5.42
2018-01-14T10:17:56.852Z,5.44
2018-01-14T10:20:25.147Z,6.22
2018-01-14T10:22:56.588Z,5.73
2018-01-14T10:25:24.868Z,6.11
2018-01-14T10:28:00.154Z,6.79
2018-01-14T10:30:29.123Z,6.15
2018-01-14T10:32:57.508Z,6.23
2018-01-14T10:35:25.788Z,5.95
2018-01-14T10:37:56.795Z,6.05
2018-01-14T10:40:25.082Z,5.73
2018-01-14T10:42:56.401Z,6.18
2018-01-14T10:45:24.708Z,5.94
2018-01-14T10:47:55.952Z,5.70
2018-01-14T10:50:25.242Z,6.09
2018-01-14T10:52:57.471Z,5.90
2018-01-14T10:55:26.021Z,5.59
2018-01-14T10:57:56.562Z,5.72
2018-01-14T11:00:24.882Z,6.17
2018-01-14T11:02:56.623Z,6.27
2018-01-14T11:05:25.116Z,6.29
2018-01-14T11:07:56.438Z,6.15
2018-01-14T11:10:25.090Z,6.22
2018-01-14T11:12:56.380Z,6.75
2018-01-14T11:15:24.648Z,6.29
2018-01-14T11:17:59.790Z,6.04
2018-01-14T11:20:28.093Z,5.90
2018-01-14T11:22:56.629Z,6.12
2018-01-14T11:25:25.040Z,5.94
2018-01-14T11:27:56.475Z,6.00
2018-01-14T11:30:25.038Z,6.29
2018-01-14T11:32:57.941Z,6.25
2018-01-14T11:35:26.566Z,6.58
2018-01-14T11:37:58.092Z,6.51
2018-01-14T11:40:26.433Z,6.53
2018-01-14T11:42:58.109Z,6.12
2018-01-14T11:45:27.000Z,6.49
2018-01-14T11:47:56.940Z,6.29
2018-01-14T11:50:25.228Z,6.19
2018-01-14T11:52:59.176Z,6.70
2018-01-14T11:55:27.480Z,6.80
2018-01-14T11:57:57.410Z,6.60
2018-01-14T12:00:25.675Z,6.98
2018-01-14T12:02:57.375Z,6.53
2018-01-14T12:05:26.008Z,6.62
2018-01-14T12:07:58.038Z,6.64
2018-01-14T12:10:26.333Z,6.94
2018-01-14T12:12:57.641Z,6.40
2018-01-14T12:15:25.951Z,5.80
2018-01-14T12:17:57.287Z,6.17
2018-01-14T12:20:25.596Z,6.05
2018-01-14T12:22:56.886Z,5.61
2018-01-14T12:25:25.356Z,5.77
2018-01-14T12:27:57.310Z,5.83
2018-01-14T12:30:25.720Z,5.96
2018-01-14T12:33:04.625Z,5.93
2018-01-14T12:35:35.346Z,6.25
2018-01-14T12:38:05.338Z,5.91
2018-01-14T12:40:33.900Z,6.39
2018-01-14T12:43:02.229Z,6.41
2018-01-14T12:45:30.527Z,6.35
2018-01-14T12:47:58.846Z,6.32
2018-01-14T12:50:29.359Z,5.71
2018-01-14T12:52:59.786Z,6.17
2018-01-14T12:55:31.150Z,6.13
2018-01-14T12:58:01.553Z,5.74
2018-01-14T13:00:32.345Z,5.96
2018-01-14T13:03:02.893Z,5.72
2018-01-14T13:05:33.019Z,5.49
2018-01-14T13:08:04.020Z,5.70
2018-01-14T13:10:34.111Z,5.75
2018-01-14T13:13:04.195Z,6.02
2018-01-14T13:15:35.058Z,5.64
2018-01-14T13:18:05.020Z,5.66
2018-01-14T13:20:35.878Z,6.21
2018-01-14T13:23:06.205Z,6.94
2018-01-14T13:25:36.391Z,6.89
2018-01-14T13:28:06.799Z,7.29
2018-01-14T13:30:37.149Z,7.32
2018-01-14T13:33:07.019Z,7.38
2018-01-14T13:35:37.488Z,7.15
2018-01-14T13:38:07.879Z,8.24
2018-01-14T13:40:37.740Z,7.90
2018-01-14T13:43:09.925Z,7.62
2018-01-14T13:45:40.162Z,7.77
2018-01-14T13:48:10.127Z,6.83
2018-01-14T13:50:40.778Z,6.61
2018-01-14T13:53:11.386Z,6.48
2018-01-14T13:55:42.190Z,6.16
2018-01-14T13:58:12.637Z,5.97
2018-01-14T14:00:43.637Z,6.48
2018-01-14T14:03:13.681Z,6.23
2018-01-14T14:05:44.707Z,6.58
2018-01-14T14:08:14.272Z,6.77
2018-01-14T14:10:44.522Z,6.76
2018-01-14T14:13:14.796Z,7.01
2018-01-14T14:15:44.778Z,6.67
2018-01-14T14:18:15.330Z,5.90
2018-01-14T14:20:45.963Z,5.41
2018-01-14T14:23:16.389Z,5.51
2018-01-14T14:25:46.972Z,5.56
2018-01-14T14:28:16.731Z,5.59
2018-01-14T14:30:48.530Z,5.69
2018-01-14T14:33:18.546Z,5.72
2018-01-14T14:35:49.560Z,5.27
2018-01-14T14:38:19.382Z,5.20
2018-01-14T14:40:49.426Z,5.13
2018-01-14T14:43:19.594Z,5.35
2018-01-14T14:45:49.703Z,5.14
2018-01-14T14:48:19.473Z,5.37
2018-01-14T14:50:50.004Z,5.33
2018-01-14T14:53:19.542Z,5.35
2018-01-14T14:55:50.293Z,5.15
2018-01-14T14:58:20.777Z,5.18
2018-01-14T15:00:51.371Z,5.35
2018-01-14T15:03:25.475Z,5.40
2018-01-14T15:05:56.145Z,5.23
2018-01-14T15:08:26.334Z,5.32
2018-01-14T15:10:57.469Z,5.29
2018-01-14T15:13:27.816Z,5.07
2018-01-14T15:15:58.711Z,4.99
2018-01-14T15:18:29.370Z,5.17
2018-01-14T15:20:59.809Z,5.06
2018-01-14T15:23:29.774Z,4.91
2018-01-14T15:26:00.364Z,4.74
2018-01-14T15:28:30.100Z,4.86
2018-01-14T15:31:00.966Z,4.58
2018-01-14T15:33:30.620Z,4.78
2018-01-14T15:36:00.278Z,4.84
2018-01-14T15:38:30.558Z,4.76
2018-01-14T15:40:59.287Z,4.71
2018-01-14T15:43:27.624Z,4.64
2018-01-14T15:45:55.929Z,4.60
2018-01-14T15:48:24.215Z,4.55
2018-01-14T15:50:52.545Z,4.48
2018-01-14T15:53:20.833Z,4.42
2018-01-14T15:55:49.144Z,4.43
2018-01-14T15:58:17.462Z,4.35
2018-01-14T16:00:45.744Z,4.35
2018-01-14T16:03:14.039Z,4.53
2018-01-14T16:05:42.332Z,4.54
2018-01-14T16:08:10.636Z,4.52
2018-01-14T16:10:38.953Z,4.59
2018-01-14T16:13:07.447Z,4.60
2018-01-14T16:15:35.893Z,4.53
2018-01-14T16:18:04.342Z,4.45
2018-01-14T16:20:32.681Z,4.38
2018-01-14T16:23:01.037Z,4.12
2018-01-14T16:25:29.311Z,4.27
2018-01-14T16:27:57.614Z,4.31
2018-01-14T16:30:26.541Z,4.37
2018-01-14T16:32:58.483Z,4.35
2018-01-14T16:35:26.772Z,4.33
2018-01-14T16:37:58.224Z,4.38
2018-01-14T16:40:26.541Z,4.32
2018-01-14T16:42:57.860Z,4.13
2018-01-14T16:45:26.157Z,4.26
2018-01-14T16:47:58.112Z,4.09
2018-01-14T16:50:26.406Z,4.19
2018-01-14T16:52:57.864Z,4.23
2018-01-14T16:55:26.145Z,4.11
2018-01-14T16:57:57.816Z,4.18
2018-01-14T17:00:26.091Z,3.97
2018-01-14T17:02:57.629Z,4.06
2018-01-14T17:05:25.916Z,4.05
2018-01-14T17:07:57.584Z,4.06
2018-01-14T17:10:25.869Z,4.11
2018-01-14T17:12:57.512Z,4.08
2018-01-14T17:15:25.795Z,3.96
2018-01-14T17:17:56.736Z,4.02
2018-01-14T17:20:25.075Z,3.96
2018-01-14T17:23:00.480Z,4.03
2018-01-14T17:25:28.744Z,4.00
2018-01-14T17:27:57.048Z,3.93
2018-01-14T17:30:25.981Z,4.01
2018-01-14T17:32:56.710Z,3.95
2018-01-14T17:35:25.046Z,4.02
2018-01-14T17:37:58.464Z,4.07
2018-01-14T17:40:26.739Z,3.73
2018-01-14T17:42:57.181Z,3.76
2018-01-14T17:45:25.620Z,3.97
2018-01-14T17:47:56.875Z,3.91
2018-01-14T17:50:25.161Z,3.98
2018-01-14T17:53:00.194Z,3.90
2018-01-14T17:55:28.496Z,3.84
2018-01-14T17:57:59.228Z,3.94
2018-01-14T18:00:27.526Z,3.90
2018-01-14T18:02:57.952Z,3.82
2018-01-14T18:05:26.256Z,3.90
2018-01-14T18:07:57.893Z,3.86
2018-01-14T18:10:26.191Z,3.87
2018-01-14T18:12:57.576Z,3.86
2018-01-14T18:15:25.891Z,3.85
2018-01-14T18:17:58.029Z,3.85
2018-01-14T18:20:26.308Z,3.71
2018-01-14T18:22:58.469Z,3.67
2018-01-14T18:25:26.778Z,3.71
2018-01-14T18:27:56.814Z,3.67
2018-01-14T18:30:25.135Z,3.69
2018-01-14T18:32:56.584Z,3.67
2018-01-14T18:35:24.870Z,3.57
2018-01-14T18:37:59.931Z,3.64
2018-01-14T18:40:28.215Z,3.59
2018-01-14T18:42:56.776Z,3.68
2018-01-14T18:45:36.949Z,3.64
2018-01-14T18:48:05.381Z,3.70
2018-01-14T18:50:33.716Z,3.69
2018-01-14T18:53:02.791Z,3.71
2018-01-14T18:55:31.064Z,3.70
2018-01-14T18:57:59.444Z,3.72
2018-01-14T19:00:27.842Z,3.59
2018-01-14T19:02:57.955Z,3.72
2018-01-14T19:05:26.671Z,3.69
2018-01-14T19:07:58.119Z,3.69
2018-01-14T19:10:26.390Z,3.68
2018-01-14T19:12:58.541Z,3.51
2018-01-14T19:15:26.840Z,3.66
2018-01-14T19:17:57.009Z,3.56
2018-01-14T19:20:25.306Z,3.48
2018-01-14T19:22:59.472Z,3.55
2018-01-14T19:25:27.772Z,3.64
2018-01-14T19:27:57.660Z,3.68
2018-01-14T19:30:26.001Z,3.70
2018-01-14T19:32:58.192Z,3.56
2018-01-14T19:35:26.477Z,3.47
2018-01-14T19:37:58.115Z,3.62
2018-01-14T19:40:26.478Z,3.52
2018-01-14T19:42:58.190Z,3.62
2018-01-14T19:45:26.471Z,3.65
2018-01-14T19:47:58.016Z,3.44
2018-01-14T19:50:26.371Z,3.56
2018-01-14T19:52:58.230Z,3.54
2018-01-14T19:55:26.725Z,3.36
2018-01-14T19:57:58.980Z,3.46
2018-01-14T20:00:28.241Z,3.46
2018-01-14T20:02:57.689Z,3.43
2018-01-14T20:05:26.130Z,3.46
2018-01-14T20:07:58.110Z,3.47
2018-01-14T20:10:27.165Z,3.48
2018-01-14T20:12:57.460Z,3.56
2018-01-14T20:15:26.311Z,3.57
2018-01-14T20:17:58.672Z,3.64
2018-01-14T20:20:27.549Z,3.62
2018-01-14T20:22:57.535Z,3.51
2018-01-14T20:25:25.979Z,3.60
2018-01-14T20:27:58.417Z,3.61
2018-01-14T20:30:27.203Z,3.53
2018-01-14T20:32:57.279Z,3.56
2018-01-14T20:35:25.686Z,3.23
2018-01-14T20:37:57.633Z,3.30
2018-01-14T20:40:26.245Z,3.17
2018-01-14T20:42:57.822Z,3.26
2018-01-14T20:45:26.307Z,3.29
2018-01-14T20:47:58.661Z,3.30
2018-01-14T20:50:27.541Z,3.17
2018-01-14T20:52:57.700Z,3.24
2018-01-14T20:55:26.551Z,3.22
2018-01-14T20:57:58.226Z,3.23
2018-01-14T21:00:26.501Z,3.20
2018-01-14T21:02:57.749Z,3.02
2018-01-14T21:05:26.024Z,3.10
2018-01-14T21:07:57.977Z,3.10
2018-01-14T21:10:26.254Z,3.03
2018-01-14T21:12:57.513Z,3.02
2018-01-14T21:15:25.784Z,3.05
2018-01-14T21:17:58.277Z,3.07
2018-01-14T21:20:26.562Z,3.08
2018-01-14T21:22:58.717Z,3.02
2018-01-14T21:25:27.027Z,3.05
2018-01-14T21:27:56.777Z,3.14
2018-01-14T21:30:25.087Z,3.12
2018-01-14T21:32:56.601Z,3.11
2018-01-14T21:35:25.552Z,3.10
2018-01-14T21:37:57.589Z,3.10
2018-01-14T21:40:25.907Z,3.05
2018-01-14T21:42:57.447Z,3.08
2018-01-14T21:45:25.739Z,3.08
2018-01-14T21:47:57.220Z,3.07
2018-01-14T21:50:25.667Z,3.13
2018-01-14T21:52:56.808Z,3.15
2018-01-14T21:55:25.107Z,3.09
2018-01-14T21:57:56.569Z,2.99
2018-01-14T22:00:24.869Z,2.81
2018-01-14T22:02:59.949Z,2.95
2018-01-14T22:05:28.399Z,2.73
2018-01-14T22:07:56.752Z,2.87
2018-01-14T22:10:25.244Z,2.98
2018-01-14T22:13:00.200Z,2.81
2018-01-14T22:15:28.501Z,2.87
2018-01-14T22:17:56.840Z,2.92
2018-01-14T22:20:25.142Z,3.00
2018-01-14T22:23:00.151Z,2.99
2018-01-14T22:25:28.461Z,2.77
2018-01-14T22:27:56.819Z,2.90
2018-01-14T22:30:25.117Z,2.97
2018-01-14T22:32:56.617Z,2.93
2018-01-14T22:35:25.211Z,2.82
2018-01-14T22:38:00.343Z,2.74
2018-01-14T22:40:28.928Z,2.84
2018-01-14T22:42:57.499Z,2.97
2018-01-14T22:45:25.821Z,2.95
2018-01-14T22:47:57.028Z,2.89
2018-01-14T22:50:25.345Z,2.81
2018-01-14T22:52:59.430Z,2.99
2018-01-14T22:55:27.722Z,3.02
2018-01-14T22:57:57.405Z,3.00
2018-01-14T23:00:25.624Z,3.01
2018-01-14T23:02:57.064Z,2.92
2018-01-14T23:05:25.385Z,2.89
2018-01-14T23:07:56.621Z,2.90
2018-01-14T23:10:24.915Z,2.88
2018-01-14T23:12:57.218Z,2.84
2018-01-14T23:15:25.497Z,2.87
2018-01-14T23:17:57.503Z,2.89
2018-01-14T23:20:25.790Z,2.90
2018-01-14T23:22:55.838Z,2.89
2018-01-14T23:25:24.335Z,2.92
2018-01-14T23:27:56.063Z,2.94
2018-01-14T23:30:24.353Z,2.93
2018-01-14T23:32:55.816Z,2.96
2018-01-14T23:35:24.091Z,2.96
2018-01-14T23:37:55.576Z,2.99
2018-01-14T23:40:23.852Z,3.01
2018-01-14T23:42:58.850Z,2.96
2018-01-14T23:45:27.126Z,2.94
2018-01-14T23:47:55.964Z,2.93
2018-01-14T23:50:24.486Z,2.94
2018-01-14T23:52:56.471Z,2.93
2018-01-14T23:55:24.770Z,2.85
2018-01-14T23:57:56.932Z,2.81
